Terminal Aerodrome Forecast
Issued by NWS Jackson, KY

Home | Current Version | Previous Version | Text Only | Print | Product List | Glossary On
Versions: 1 2 3 4 5 6 7 8 9 10 11 12 13 14 15 16
902
FTUS43 KJKL 042333
TAFLOZ
TAF
KLOZ 042333Z 0500/0524 VRB05KT P6SM VCSH BKN045
     FM051300 31006KT P6SM VCSH OVC020
     FM051400 31007KT P6SM VCSH OVC010
     FM051800 32008KT P6SM VCSH BKN030=

USA.gov is the U.S. government's official web portal to all federal, state and local government web resources and services.